createdAt,value
2022-12-29T00:01:18.823Z,4.14
2022-12-29T00:03:48.088Z,4.16
2022-12-29T00:06:17.229Z,4.19
2022-12-29T00:08:47.369Z,4.22
2022-12-29T00:11:19.459Z,4.23
2022-12-29T00:14:07.890Z,4.23
2022-12-29T00:17:08.305Z,4.24
2022-12-29T00:19:57.716Z,4.26
2022-12-29T00:22:51.955Z,4.29
2022-12-29T00:25:39.460Z,4.27
2022-12-29T00:28:29.128Z,4.22
2022-12-29T00:31:21.311Z,4.19
2022-12-29T00:34:08.015Z,4.17
2022-12-29T00:36:42.210Z,4.15
2022-12-29T00:39:38.251Z,4.12
2022-12-29T00:42:33.973Z,4.07
2022-12-29T00:45:06.510Z,3.97
2022-12-29T00:48:09.048Z,3.94
2022-12-29T00:50:38.227Z,3.89
2022-12-29T00:53:10.076Z,3.82
2022-12-29T00:55:39.478Z,3.82
2022-12-29T00:58:08.568Z,3.81
2022-12-29T01:00:39.099Z,3.80
2022-12-29T01:03:08.158Z,3.79
2022-12-29T01:05:40.020Z,3.80
2022-12-29T01:08:15.082Z,3.82
2022-12-29T01:10:44.014Z,3.85
2022-12-29T01:13:14.001Z,3.89
2022-12-29T01:15:52.560Z,3.91
2022-12-29T01:18:25.447Z,3.95
2022-12-29T01:21:02.479Z,3.98
2022-12-29T01:23:32.436Z,4.02
2022-12-29T01:26:14.058Z,4.05
2022-12-29T01:28:45.411Z,4.09
2022-12-29T01:31:18.828Z,4.11
2022-12-29T01:33:46.932Z,4.14
2022-12-29T01:36:18.813Z,4.25
2022-12-29T01:38:47.530Z,4.32
2022-12-29T01:41:17.002Z,4.36
2022-12-29T01:43:58.227Z,4.38
2022-12-29T01:46:28.107Z,4.40
2022-12-29T01:49:00.551Z,4.40
2022-12-29T01:51:30.893Z,4.40
2022-12-29T01:54:04.483Z,4.38
2022-12-29T01:56:34.671Z,4.34
2022-12-29T01:59:16.674Z,4.31
2022-12-29T02:01:46.601Z,4.29
2022-12-29T02:04:19.512Z,4.28
2022-12-29T02:06:58.456Z,4.26
2022-12-29T02:09:27.042Z,4.24
2022-12-29T02:11:57.877Z,4.22
2022-12-29T02:14:25.993Z,4.16
2022-12-29T02:17:05.276Z,4.12
2022-12-29T02:19:50.224Z,4.12
2022-12-29T02:22:28.354Z,4.09
2022-12-29T02:25:02.527Z,4.06
2022-12-29T02:27:46.445Z,4.06
2022-12-29T02:30:41.280Z,4.06
2022-12-29T02:33:35.611Z,4.04
2022-12-29T02:36:43.049Z,4.01
2022-12-29T02:39:34.260Z,4.02
2022-12-29T02:42:28.422Z,4.01
2022-12-29T02:45:38.467Z,3.98
2022-12-29T02:48:46.168Z,3.97
2022-12-29T02:51:31.254Z,3.97
2022-12-29T02:54:19.329Z,3.94
2022-12-29T02:56:48.000Z,3.98
2022-12-29T02:59:24.833Z,3.99
2022-12-29T03:02:21.584Z,3.98
2022-12-29T03:05:15.119Z,4.00
2022-12-29T03:08:22.971Z,4.03
2022-12-29T03:11:05.092Z,4.08
2022-12-29T03:14:06.977Z,4.11
2022-12-29T03:16:46.418Z,4.11
2022-12-29T03:19:20.380Z,4.12
2022-12-29T03:22:29.171Z,4.06
2022-12-29T03:25:15.959Z,4.08
2022-12-29T03:27:55.920Z,4.06
2022-12-29T03:30:33.222Z,4.03
2022-12-29T03:33:05.798Z,4.00
2022-12-29T03:35:43.052Z,4.00
2022-12-29T03:38:31.903Z,4.01
2022-12-29T03:41:11.552Z,3.99
2022-12-29T03:43:39.776Z,3.96
2022-12-29T03:46:09.200Z,3.96
2022-12-29T03:48:39.460Z,3.95
2022-12-29T03:51:17.164Z,3.89
2022-12-29T03:53:51.035Z,3.86
2022-12-29T03:56:21.088Z,3.84
2022-12-29T03:58:54.202Z,3.83
2022-12-29T04:01:42.545Z,3.79
2022-12-29T04:04:19.267Z,3.78
2022-12-29T04:06:50.584Z,3.76
2022-12-29T04:09:23.113Z,3.78
2022-12-29T04:11:52.643Z,3.78
2022-12-29T04:14:22.353Z,3.79
2022-12-29T04:16:52.782Z,3.79
2022-12-29T04:19:39.977Z,3.80
2022-12-29T04:22:09.096Z,3.81
2022-12-29T04:24:37.357Z,3.82
2022-12-29T04:27:06.759Z,3.82
2022-12-29T04:30:08.576Z,3.83
2022-12-29T04:32:46.925Z,3.86
2022-12-29T04:35:22.123Z,3.89
2022-12-29T04:37:50.493Z,3.90
2022-12-29T04:40:18.749Z,3.90
2022-12-29T04:42:48.499Z,3.90
2022-12-29T04:45:18.354Z,3.89
2022-12-29T04:47:55.743Z,3.88
2022-12-29T04:50:40.553Z,3.93
2022-12-29T04:53:29.056Z,3.95
2022-12-29T04:56:07.387Z,3.96
2022-12-29T04:58:37.803Z,3.97
2022-12-29T05:01:15.252Z,4.00
2022-12-29T05:03:45.516Z,4.05
2022-12-29T05:06:13.610Z,4.08
2022-12-29T05:08:41.670Z,4.09
2022-12-29T05:11:10.813Z,4.09
2022-12-29T05:13:41.058Z,4.10
2022-12-29T05:16:11.151Z,4.12
2022-12-29T05:18:43.030Z,4.13
2022-12-29T05:21:12.106Z,4.14
2022-12-29T05:23:49.195Z,4.15
2022-12-29T05:26:17.471Z,4.15
2022-12-29T05:28:57.632Z,4.16
2022-12-29T05:31:25.878Z,4.11
2022-12-29T05:33:56.525Z,4.11
2022-12-29T05:36:24.759Z,4.11
2022-12-29T05:38:56.763Z,4.10
2022-12-29T05:41:25.974Z,4.10
2022-12-29T05:44:12.036Z,4.10
2022-12-29T05:46:47.273Z,4.09
2022-12-29T05:49:19.651Z,4.07
2022-12-29T05:52:19.432Z,4.05
2022-12-29T05:54:48.513Z,4.06
2022-12-29T05:57:21.621Z,4.07
2022-12-29T06:00:06.359Z,4.08
2022-12-29T06:02:42.755Z,4.10
2022-12-29T06:05:13.190Z,4.12
2022-12-29T06:07:47.543Z,4.17
2022-12-29T06:10:21.123Z,4.25
2022-12-29T06:12:56.411Z,4.33
2022-12-29T06:15:24.621Z,4.44
2022-12-29T06:17:57.069Z,4.55
2022-12-29T06:20:25.277Z,4.63
2022-12-29T06:22:53.951Z,4.70
2022-12-29T06:25:23.083Z,4.77
2022-12-29T06:27:52.172Z,4.85
2022-12-29T06:30:21.171Z,4.93
2022-12-29T06:32:49.617Z,4.96
2022-12-29T06:35:18.166Z,4.98
2022-12-29T06:37:57.329Z,4.98
2022-12-29T06:40:58.077Z,4.94
2022-12-29T06:44:09.200Z,4.96
2022-12-29T06:46:56.718Z,4.91
2022-12-29T06:49:29.060Z,4.87
2022-12-29T06:51:59.323Z,4.82
2022-12-29T06:54:28.379Z,4.81
2022-12-29T06:56:59.119Z,4.80
2022-12-29T06:59:35.246Z,4.79
2022-12-29T07:02:04.567Z,4.80
2022-12-29T07:04:33.957Z,4.84
2022-12-29T07:07:03.053Z,4.91
2022-12-29T07:09:33.423Z,4.99
2022-12-29T07:12:01.911Z,5.08
2022-12-29T07:14:42.903Z,5.13
2022-12-29T07:17:13.513Z,5.17
2022-12-29T07:19:51.100Z,5.23
2022-12-29T07:22:20.184Z,5.27
2022-12-29T07:24:48.170Z,5.31
2022-12-29T07:27:17.338Z,5.32
2022-12-29T07:29:47.486Z,5.33
2022-12-29T07:32:15.620Z,5.36
2022-12-29T07:34:46.295Z,5.41
2022-12-29T07:37:16.539Z,5.44
2022-12-29T07:39:48.015Z,5.48
2022-12-29T07:42:16.018Z,5.55
2022-12-29T07:44:58.127Z,5.59
2022-12-29T07:47:41.183Z,5.61
2022-12-29T07:50:09.479Z,5.63
2022-12-29T07:52:41.045Z,5.65
2022-12-29T07:55:09.977Z,5.68
2022-12-29T07:57:40.128Z,5.71
2022-12-29T08:00:10.723Z,5.76
2022-12-29T08:02:41.789Z,5.80
2022-12-29T08:05:12.514Z,5.87
2022-12-29T08:07:51.260Z,5.92
2022-12-29T08:10:20.404Z,5.96
2022-12-29T08:12:53.121Z,6.01
2022-12-29T08:15:21.847Z,6.10
2022-12-29T08:17:52.551Z,6.20
2022-12-29T08:20:21.948Z,6.52
2022-12-29T08:22:51.966Z,6.88
2022-12-29T08:25:22.255Z,7.11
2022-12-29T08:27:51.359Z,7.26
2022-12-29T08:30:20.431Z,7.39
2022-12-29T08:32:52.104Z,7.49
2022-12-29T08:35:20.097Z,7.56
2022-12-29T08:37:48.104Z,7.57
2022-12-29T08:40:17.253Z,7.64
2022-12-29T08:42:45.413Z,7.83
2022-12-29T08:45:14.534Z,8.23
2022-12-29T08:47:44.125Z,8.75
2022-12-29T08:50:46.023Z,9.33
2022-12-29T08:53:14.127Z,10.08
2022-12-29T08:55:48.521Z,10.65
2022-12-29T08:58:19.104Z,11.23
2022-12-29T09:00:47.185Z,11.97
2022-12-29T09:03:25.862Z,12.73
2022-12-29T09:06:07.567Z,13.49
2022-12-29T09:08:39.722Z,14.16
2022-12-29T09:11:16.736Z,14.83
2022-12-29T09:13:45.383Z,15.30
2022-12-29T09:16:23.526Z,15.67
2022-12-29T09:18:52.263Z,15.93
2022-12-29T09:21:22.480Z,16.18
2022-12-29T09:23:51.577Z,16.50
2022-12-29T09:26:28.339Z,16.83
2022-12-29T09:28:56.527Z,17.16
2022-12-29T09:31:26.327Z,17.16
2022-12-29T09:34:03.131Z,16.97
2022-12-29T09:37:05.086Z,16.79
2022-12-29T09:39:34.237Z,16.35
2022-12-29T09:42:24.910Z,16.04
2022-12-29T09:45:00.418Z,15.67
2022-12-29T09:47:32.402Z,15.13
2022-12-29T09:50:24.928Z,14.84
2022-12-29T09:53:06.887Z,15.24
2022-12-29T09:55:42.274Z,15.64
2022-12-29T09:58:22.500Z,15.50
2022-12-29T10:01:20.102Z,14.94
2022-12-29T10:03:50.297Z,14.72
2022-12-29T10:07:28.002Z,15.14
2022-12-29T10:09:57.686Z,15.52
2022-12-29T10:12:42.955Z,15.31
2022-12-29T10:15:16.949Z,14.93
2022-12-29T10:18:04.852Z,14.63
2022-12-29T10:21:01.660Z,14.82
2022-12-29T10:24:03.216Z,15.27
2022-12-29T10:26:41.527Z,15.66
2022-12-29T10:29:39.500Z,15.89
2022-12-29T10:32:18.535Z,15.83
2022-12-29T10:34:55.254Z,15.51
2022-12-29T10:37:41.920Z,15.05
2022-12-29T10:40:49.091Z,14.44
2022-12-29T10:43:27.291Z,13.76
2022-12-29T10:46:05.687Z,13.29
2022-12-29T10:48:38.083Z,12.91
2022-12-29T10:51:09.738Z,12.68
2022-12-29T10:54:11.590Z,12.50
2022-12-29T10:56:54.756Z,12.33
2022-12-29T10:59:26.279Z,12.44
2022-12-29T11:02:06.162Z,12.67
2022-12-29T11:05:00.415Z,12.79
2022-12-29T11:07:33.045Z,12.60
2022-12-29T11:10:18.247Z,12.29
2022-12-29T11:13:05.666Z,11.96
2022-12-29T11:15:53.914Z,11.71
2022-12-29T11:18:38.348Z,11.57
2022-12-29T11:21:42.995Z,11.53
2022-12-29T11:24:27.293Z,11.61
2022-12-29T11:27:15.521Z,11.58
2022-12-29T11:29:44.429Z,11.68
2022-12-29T11:32:28.906Z,11.86
2022-12-29T11:35:05.552Z,12.15
2022-12-29T11:37:41.017Z,12.28
2022-12-29T11:40:19.932Z,12.31
2022-12-29T11:42:53.979Z,12.16
2022-12-29T11:45:24.399Z,11.87
2022-12-29T11:48:22.431Z,11.56
2022-12-29T11:51:00.763Z,11.30
2022-12-29T11:53:38.197Z,11.06
2022-12-29T11:56:07.104Z,10.86
2022-12-29T11:58:37.896Z,10.72
2022-12-29T12:01:22.098Z,10.62
2022-12-29T12:04:04.746Z,10.44
2022-12-29T12:06:40.568Z,10.34
2022-12-29T12:09:17.636Z,10.26
2022-12-29T12:11:47.169Z,10.23
2022-12-29T12:14:27.438Z,10.32
2022-12-29T12:17:38.597Z,10.49
2022-12-29T12:20:23.168Z,10.62
2022-12-29T12:23:04.232Z,10.64
2022-12-29T12:25:44.668Z,10.65
2022-12-29T12:28:40.007Z,10.66
2022-12-29T12:31:27.701Z,10.63
2022-12-29T12:34:38.672Z,10.63
2022-12-29T12:37:09.895Z,10.61
2022-12-29T12:39:52.806Z,10.58
2022-12-29T12:42:30.970Z,10.52
2022-12-29T12:45:20.858Z,10.41
2022-12-29T12:48:14.706Z,10.28
2022-12-29T12:51:07.939Z,10.17
2022-12-29T12:53:52.341Z,10.07
2022-12-29T12:56:22.996Z,9.98
2022-12-29T12:59:10.181Z,9.93
2022-12-29T13:02:03.111Z,9.83
2022-12-29T13:04:44.580Z,9.80
2022-12-29T13:07:23.731Z,9.82
2022-12-29T13:10:12.676Z,9.87
2022-12-29T13:12:52.133Z,9.98
2022-12-29T13:15:35.072Z,10.09
2022-12-29T13:18:14.061Z,10.09
2022-12-29T13:20:48.717Z,10.11
2022-12-29T13:23:54.428Z,10.16
2022-12-29T13:27:01.878Z,10.33
2022-12-29T13:29:37.492Z,10.59
2022-12-29T13:32:40.131Z,10.87
2022-12-29T13:35:34.462Z,10.94
2022-12-29T13:38:30.424Z,10.81
2022-12-29T13:41:06.053Z,10.68
2022-12-29T13:43:41.023Z,10.59
2022-12-29T13:46:38.805Z,10.50
2022-12-29T13:49:19.377Z,10.35
2022-12-29T13:51:59.041Z,10.27
2022-12-29T13:55:07.925Z,10.18
2022-12-29T13:57:36.068Z,10.01
2022-12-29T14:00:12.403Z,9.90
2022-12-29T14:03:24.891Z,9.83
2022-12-29T14:06:06.349Z,9.78
2022-12-29T14:08:36.665Z,9.77
2022-12-29T14:11:12.075Z,9.74
2022-12-29T14:13:45.147Z,9.68
2022-12-29T14:16:34.870Z,9.60
2022-12-29T14:19:28.612Z,9.54
2022-12-29T14:22:01.899Z,9.45
2022-12-29T14:24:36.018Z,9.32
2022-12-29T14:27:11.130Z,9.27
2022-12-29T14:29:40.258Z,9.17
2022-12-29T14:32:25.683Z,9.04
2022-12-29T14:34:56.015Z,8.95
2022-12-29T14:37:30.212Z,8.89
2022-12-29T14:40:20.267Z,8.79
2022-12-29T14:42:59.334Z,8.71
2022-12-29T14:45:38.514Z,8.67
2022-12-29T14:48:31.472Z,8.63
2022-12-29T14:50:59.965Z,8.58
2022-12-29T14:53:47.133Z,8.55
2022-12-29T14:56:16.592Z,8.53
2022-12-29T14:58:49.954Z,8.51
2022-12-29T15:01:34.183Z,8.50
2022-12-29T15:04:32.553Z,8.52
2022-12-29T15:07:04.412Z,8.56
2022-12-29T15:09:50.492Z,8.59
2022-12-29T15:12:41.046Z,8.62
2022-12-29T15:15:21.947Z,8.63
2022-12-29T15:17:57.236Z,8.60
2022-12-29T15:20:34.288Z,8.65
2022-12-29T15:23:11.377Z,8.67
2022-12-29T15:25:51.991Z,8.68
2022-12-29T15:28:28.670Z,8.66
2022-12-29T15:31:07.471Z,8.64
2022-12-29T15:33:45.043Z,8.62
2022-12-29T15:36:25.310Z,8.57
2022-12-29T15:38:55.439Z,8.54
2022-12-29T15:42:00.939Z,8.50
2022-12-29T15:44:38.608Z,8.44
2022-12-29T15:47:41.363Z,8.40
2022-12-29T15:50:15.523Z,8.39
2022-12-29T15:52:43.847Z,8.38
2022-12-29T15:55:23.286Z,8.39
2022-12-29T15:58:00.163Z,8.43
2022-12-29T16:00:31.662Z,8.47
2022-12-29T16:03:05.301Z,8.51
2022-12-29T16:05:41.088Z,8.46
2022-12-29T16:08:41.142Z,8.40
2022-12-29T16:11:27.895Z,8.35
2022-12-29T16:14:07.583Z,8.33
2022-12-29T16:16:44.336Z,8.32
2022-12-29T16:19:30.844Z,8.34
2022-12-29T16:22:13.906Z,8.32
2022-12-29T16:25:02.411Z,8.30
2022-12-29T16:28:17.229Z,8.26
2022-12-29T16:31:51.118Z,8.20
2022-12-29T16:35:16.902Z,8.17
2022-12-29T16:38:19.319Z,8.19
2022-12-29T16:41:04.090Z,8.21
2022-12-29T16:43:35.807Z,8.23
2022-12-29T16:46:30.100Z,8.22
2022-12-29T16:49:00.331Z,8.25
2022-12-29T16:51:37.887Z,8.25
2022-12-29T16:54:14.965Z,8.24
2022-12-29T16:56:49.601Z,8.23
2022-12-29T16:59:31.489Z,8.19
2022-12-29T17:02:02.198Z,8.13
2022-12-29T17:04:31.269Z,8.08
2022-12-29T17:06:59.404Z,8.03
2022-12-29T17:09:35.625Z,8.03
2022-12-29T17:12:10.859Z,7.99
2022-12-29T17:15:01.316Z,7.96
2022-12-29T17:17:29.370Z,7.94
2022-12-29T17:20:04.256Z,7.91
2022-12-29T17:22:34.157Z,7.87
2022-12-29T17:25:03.846Z,7.85
2022-12-29T17:27:50.813Z,7.86
2022-12-29T17:30:33.246Z,7.88
2022-12-29T17:33:08.904Z,7.88
2022-12-29T17:35:37.135Z,7.86
2022-12-29T17:38:20.160Z,7.86
2022-12-29T17:40:49.340Z,7.84
2022-12-29T17:43:52.913Z,7.83
2022-12-29T17:46:27.320Z,7.79
2022-12-29T17:49:10.608Z,7.79
2022-12-29T17:51:44.436Z,7.81
2022-12-29T17:54:25.998Z,7.83
2022-12-29T17:57:00.109Z,7.84
2022-12-29T17:59:28.139Z,7.81
2022-12-29T18:01:56.230Z,7.75
2022-12-29T18:04:26.419Z,7.69
2022-12-29T18:07:06.226Z,7.64
2022-12-29T18:09:36.360Z,7.58
2022-12-29T18:12:09.447Z,7.55
2022-12-29T18:14:46.364Z,7.53
2022-12-29T18:17:14.411Z,7.52
2022-12-29T18:19:42.584Z,7.53
2022-12-29T18:22:11.792Z,7.53
2022-12-29T18:24:41.960Z,7.55
2022-12-29T18:27:19.695Z,7.55
2022-12-29T18:29:50.313Z,7.54
2022-12-29T18:32:21.399Z,7.53
2022-12-29T18:34:49.679Z,7.52
2022-12-29T18:37:22.079Z,7.50
2022-12-29T18:39:51.464Z,7.46
2022-12-29T18:42:19.421Z,7.45
2022-12-29T18:45:22.823Z,7.45
2022-12-29T18:47:51.813Z,7.38
2022-12-29T18:50:19.877Z,7.34
2022-12-29T18:52:49.135Z,7.29
2022-12-29T18:55:21.847Z,7.26
2022-12-29T18:57:58.157Z,7.21
2022-12-29T19:00:37.382Z,7.12
2022-12-29T19:03:06.210Z,7.08
2022-12-29T19:05:39.107Z,7.06
2022-12-29T19:08:08.888Z,7.06
2022-12-29T19:10:45.246Z,7.07
2022-12-29T19:13:28.877Z,7.07
2022-12-29T19:16:00.046Z,7.09
2022-12-29T19:18:48.753Z,7.12
2022-12-29T19:21:20.149Z,7.09
2022-12-29T19:23:49.323Z,7.07
2022-12-29T19:26:38.236Z,7.04
2022-12-29T19:29:40.074Z,7.03
2022-12-29T19:32:08.148Z,7.00
2022-12-29T19:34:37.087Z,6.99
2022-12-29T19:37:11.015Z,6.94
2022-12-29T19:39:45.839Z,6.90
2022-12-29T19:42:13.872Z,6.87
2022-12-29T19:44:46.980Z,6.86
2022-12-29T19:47:21.148Z,6.86
2022-12-29T19:49:50.226Z,6.87
2022-12-29T19:52:57.364Z,6.88
2022-12-29T19:55:33.756Z,6.89
2022-12-29T19:58:04.025Z,6.89
2022-12-29T20:00:34.141Z,6.88
2022-12-29T20:03:04.873Z,6.85
2022-12-29T20:05:33.153Z,6.82
2022-12-29T20:08:02.301Z,6.81
2022-12-29T20:10:30.561Z,6.81
2022-12-29T20:12:58.525Z,6.84
2022-12-29T20:15:30.085Z,6.83
2022-12-29T20:18:15.073Z,6.84
2022-12-29T20:20:48.074Z,6.83
2022-12-29T20:23:15.895Z,6.80
2022-12-29T20:25:45.930Z,6.77
2022-12-29T20:28:16.238Z,6.72
2022-12-29T20:30:45.347Z,6.66
2022-12-29T20:33:13.472Z,6.59
2022-12-29T20:35:43.590Z,6.56
2022-12-29T20:38:11.544Z,6.54
2022-12-29T20:40:46.651Z,6.54
2022-12-29T20:43:16.510Z,6.55
2022-12-29T20:45:44.751Z,6.57
2022-12-29T20:48:18.141Z,6.57
2022-12-29T20:50:47.217Z,6.55
2022-12-29T20:53:17.916Z,6.52
2022-12-29T20:55:46.952Z,6.51
2022-12-29T20:58:24.378Z,6.48
2022-12-29T21:00:53.683Z,6.45
2022-12-29T21:03:23.121Z,6.45
2022-12-29T21:05:56.330Z,6.46
2022-12-29T21:08:30.424Z,6.45
2022-12-29T21:11:05.467Z,6.46
2022-12-29T21:13:34.341Z,6.48
2022-12-29T21:16:07.223Z,6.49
2022-12-29T21:18:36.123Z,6.47
2022-12-29T21:21:07.997Z,6.43
2022-12-29T21:23:40.738Z,6.41
2022-12-29T21:26:16.772Z,6.42
2022-12-29T21:28:46.360Z,6.41
2022-12-29T21:31:24.585Z,6.35
2022-12-29T21:33:54.903Z,6.41
2022-12-29T21:36:25.017Z,6.41
2022-12-29T21:38:55.590Z,6.41
2022-12-29T21:41:23.641Z,6.38
2022-12-29T21:44:11.240Z,6.36
2022-12-29T21:46:42.137Z,6.33
2022-12-29T21:49:11.291Z,6.34
2022-12-29T21:51:54.281Z,6.32
2022-12-29T21:54:49.513Z,6.31
2022-12-29T21:57:38.004Z,6.31
2022-12-29T22:00:35.352Z,6.30
2022-12-29T22:03:30.526Z,6.28
2022-12-29T22:06:18.459Z,6.25
2022-12-29T22:09:05.240Z,6.23
2022-12-29T22:11:56.672Z,6.22
2022-12-29T22:14:28.087Z,6.22
2022-12-29T22:16:58.685Z,6.23
2022-12-29T22:19:27.642Z,6.25
2022-12-29T22:21:57.683Z,6.26
2022-12-29T22:24:34.064Z,6.27
2022-12-29T22:27:03.425Z,6.28
2022-12-29T22:30:05.484Z,6.27
2022-12-29T22:32:36.005Z,6.27
2022-12-29T22:35:08.420Z,6.28
2022-12-29T22:37:39.856Z,6.28
2022-12-29T22:40:10.084Z,6.28
2022-12-29T22:42:38.753Z,6.28
2022-12-29T22:45:09.891Z,6.28
2022-12-29T22:47:45.135Z,6.27
2022-12-29T22:50:14.243Z,6.27
2022-12-29T22:53:15.167Z,6.28
2022-12-29T22:55:44.277Z,6.28
2022-12-29T22:58:17.088Z,6.28
2022-12-29T23:00:45.131Z,6.30
2022-12-29T23:03:14.308Z,6.31
2022-12-29T23:05:43.609Z,6.34
2022-12-29T23:08:13.826Z,6.32
2022-12-29T23:10:41.881Z,6.34
2022-12-29T23:13:18.231Z,6.31
2022-12-29T23:15:48.876Z,6.30
2022-12-29T23:18:19.149Z,6.25
2022-12-29T23:20:49.185Z,6.23
2022-12-29T23:23:41.797Z,6.21
2022-12-29T23:26:15.679Z,6.17
2022-12-29T23:28:46.288Z,6.14
2022-12-29T23:31:48.464Z,6.13
2022-12-29T23:34:17.559Z,6.13
2022-12-29T23:36:46.867Z,6.12
2022-12-29T23:39:24.651Z,6.13
2022-12-29T23:41:53.664Z,6.14
2022-12-29T23:44:23.765Z,6.13
2022-12-29T23:46:56.135Z,6.01
2022-12-29T23:49:30.040Z,6.13
2022-12-29T23:52:05.139Z,6.15
2022-12-29T23:54:33.137Z,6.16
2022-12-29T23:57:02.190Z,6.15
2022-12-29T23:59:31.145Z,6.12
